Terminal Aerodrome Forecast
Issued by NWS

Home | Current Version | Previous Version | Text Only | Print | Product List | Glossary On
Versions: 1 2 3 4 5 6 7 8 9 10 11 12 13 14 15 16 17 18
000
FTUS43 KDLH 270537
TAFHYR
TAF
KHYR 270537Z 2706/2806 00000KT P6SM SKC
     FM270900 00000KT 4SM BR FEW001
     FM271400 18005KT P6SM SKC
     FM272000 20010KT P6SM SCT060
     FM280000 17004KT P6SM BKN050=

USA.gov is the U.S. government's official web portal to all federal, state and local government web resources and services.